sensor_id;sensor_type;location;lat;lon;timestamp;temperature;humidity
56123;DHT22;42426;46.104;19.656;2023-04-25T00:01:34;358.80;2329.60
56123;DHT22;42426;46.104;19.656;2023-04-25T00:04:01;358.80;2329.60
56123;DHT22;42426;46.104;19.656;2023-04-25T00:06:29;358.80;2329.60
56123;DHT22;42426;46.104;19.656;2023-04-25T00:08:57;358.70;2329.60
56123;DHT22;42426;46.104;19.656;2023-04-25T00:11:23;358.60;2329.60
56123;DHT22;42426;46.104;19.656;2023-04-25T00:13:49;358.60;2329.60
56123;DHT22;42426;46.104;19.656;2023-04-25T00:16:18;358.50;2329.60
56123;DHT22;42426;46.104;19.656;2023-04-25T00:18:44;358.60;2329.60
56123;DHT22;42426;46.104;19.656;2023-04-25T00:21:11;358.60;2329.60
56123;DHT22;42426;46.104;19.656;2023-04-25T00:23:37;358.60;2329.60
56123;DHT22;42426;46.104;19.656;2023-04-25T00:26:05;358.60;2329.60
56123;DHT22;42426;46.104;19.656;2023-04-25T00:28:31;358.60;2329.60
56123;DHT22;42426;46.104;19.656;2023-04-25T00:30:56;358.50;2329.60
56123;DHT22;42426;46.104;19.656;2023-04-25T00:33:22;358.50;2329.60
56123;DHT22;42426;46.104;19.656;2023-04-25T00:35:48;358.40;2329.60
56123;DHT22;42426;46.104;19.656;2023-04-25T00:38:14;358.40;2329.60
56123;DHT22;42426;46.104;19.656;2023-04-25T00:40:40;358.40;2329.60
56123;DHT22;42426;46.104;19.656;2023-04-25T00:43:09;358.40;2329.60
56123;DHT22;42426;46.104;19.656;2023-04-25T00:45:38;358.40;2329.60
56123;DHT22;42426;46.104;19.656;2023-04-25T00:48:04;333.70;2329.60
56123;DHT22;42426;46.104;19.656;2023-04-25T00:50:30;333.70;2329.60
56123;DHT22;42426;46.104;19.656;2023-04-25T00:52:57;333.60;2329.60
56123;DHT22;42426;46.104;19.656;2023-04-25T00:55:23;333.60;2329.60
56123;DHT22;42426;46.104;19.656;2023-04-25T00:57:50;333.50;2329.60
56123;DHT22;42426;46.104;19.656;2023-04-25T01:00:16;333.50;2329.60
56123;DHT22;42426;46.104;19.656;2023-04-25T01:02:42;333.50;2329.60
56123;DHT22;42426;46.104;19.656;2023-04-25T01:05:08;333.40;2329.60
56123;DHT22;42426;46.104;19.656;2023-04-25T01:07:34;333.40;2329.60
56123;DHT22;42426;46.104;19.656;2023-04-25T01:10:01;333.30;2329.60
56123;DHT22;42426;46.104;19.656;2023-04-25T01:12:27;333.40;2329.60
56123;DHT22;42426;46.104;19.656;2023-04-25T01:14:52;333.50;2329.60
56123;DHT22;42426;46.104;19.656;2023-04-25T01:17:19;333.30;2329.60
56123;DHT22;42426;46.104;19.656;2023-04-25T01:19:45;333.20;2329.60
56123;DHT22;42426;46.104;19.656;2023-04-25T01:22:15;333.20;2329.60
56123;DHT22;42426;46.104;19.656;2023-04-25T01:24:41;333.10;2329.60
56123;DHT22;42426;46.104;19.656;2023-04-25T01:27:08;333.10;2329.60
56123;DHT22;42426;46.104;19.656;2023-04-25T01:29:35;333.10;2329.60
56123;DHT22;42426;46.104;19.656;2023-04-25T01:32:01;333.10;2329.60
56123;DHT22;42426;46.104;19.656;2023-04-25T01:34:27;333.10;2329.60
56123;DHT22;42426;46.104;19.656;2023-04-25T01:36:53;333.10;2329.60
56123;DHT22;42426;46.104;19.656;2023-04-25T01:39:19;333.10;2329.60
56123;DHT22;42426;46.104;19.656;2023-04-25T01:41:46;333.00;2329.60
56123;DHT22;42426;46.104;19.656;2023-04-25T01:44:13;332.90;2329.60
56123;DHT22;42426;46.104;19.656;2023-04-25T01:46:39;332.90;2329.60
56123;DHT22;42426;46.104;19.656;2023-04-25T01:49:06;332.90;2329.60
56123;DHT22;42426;46.104;19.656;2023-04-25T01:51:32;332.90;2329.60
56123;DHT22;42426;46.104;19.656;2023-04-25T10:38:42;384.50;1996.80
56123;DHT22;42426;46.104;19.656;2023-04-25T10:41:09;384.40;2022.40
56123;DHT22;42426;46.104;19.656;2023-04-25T10:43:40;384.50;2048.00
56123;DHT22;42426;46.104;19.656;2023-04-25T10:46:35;384.40;2048.00
56123;DHT22;42426;46.104;19.656;2023-04-25T10:49:02;384.50;2048.00
56123;DHT22;42426;46.104;19.656;2023-04-25T10:51:33;384.70;2048.00
56123;DHT22;42426;46.104;19.656;2023-04-25T10:54:07;384.60;2022.40
56123;DHT22;42426;46.104;19.656;2023-04-25T10:56:37;384.60;2073.60
56123;DHT22;42426;46.104;19.656;2023-04-25T10:59:15;384.60;2048.00
56123;DHT22;42426;46.104;19.656;2023-04-25T11:04:27;384.60;2073.60
56123;DHT22;42426;46.104;19.656;2023-04-25T11:09:38;384.70;2073.60
56123;DHT22;42426;46.104;19.656;2023-04-25T11:12:04;384.80;2048.00
56123;DHT22;42426;46.104;19.656;2023-04-25T11:14:30;384.70;2048.00
56123;DHT22;42426;46.104;19.656;2023-04-25T11:16:57;384.60;2022.40
56123;DHT22;42426;46.104;19.656;2023-04-25T11:19:24;384.70;2022.40
56123;DHT22;42426;46.104;19.656;2023-04-25T11:21:50;384.60;1971.20
56123;DHT22;42426;46.104;19.656;2023-04-25T11:24:17;384.50;1945.60
56123;DHT22;42426;46.104;19.656;2023-04-25T11:26:52;384.40;1971.20
56123;DHT22;42426;46.104;19.656;2023-04-25T11:29:17;384.50;1996.80
56123;DHT22;42426;46.104;19.656;2023-04-25T11:31:44;384.60;2022.40
56123;DHT22;42426;46.104;19.656;2023-04-25T11:34:11;384.70;1945.60
56123;DHT22;42426;46.104;19.656;2023-04-25T11:36:38;384.80;1894.40
56123;DHT22;42426;46.104;19.656;2023-04-25T11:39:04;409.60;1945.60
56123;DHT22;42426;46.104;19.656;2023-04-25T11:41:31;409.60;1894.40
56123;DHT22;42426;46.104;19.656;2023-04-25T11:43:57;409.70;1945.60
56123;DHT22;42426;46.104;19.656;2023-04-25T11:46:22;409.80;1920.00
56123;DHT22;42426;46.104;19.656;2023-04-25T11:48:48;409.80;1920.00
56123;DHT22;42426;46.104;19.656;2023-04-25T11:51:15;409.90;1945.60
56123;DHT22;42426;46.104;19.656;2023-04-25T11:53:43;410.00;1920.00
56123;DHT22;42426;46.104;19.656;2023-04-25T11:56:10;410.10;1945.60
56123;DHT22;42426;46.104;19.656;2023-04-25T12:01:36;410.20;1894.40
56123;DHT22;42426;46.104;19.656;2023-04-25T12:04:12;410.30;1894.40
56123;DHT22;42426;46.104;19.656;2023-04-25T12:06:39;410.30;1868.80
56123;DHT22;42426;46.104;19.656;2023-04-25T12:09:08;410.30;1843.20
56123;DHT22;42426;46.104;19.656;2023-04-25T12:11:45;410.40;1894.40
56123;DHT22;42426;46.104;19.656;2023-04-25T12:14:12;410.40;1843.20
56123;DHT22;42426;46.104;19.656;2023-04-25T12:16:45;410.40;1894.40
56123;DHT22;42426;46.104;19.656;2023-04-25T12:19:15;410.40;1945.60
56123;DHT22;42426;46.104;19.656;2023-04-25T12:21:41;410.50;1920.00
56123;DHT22;42426;46.104;19.656;2023-04-25T12:24:16;410.50;1920.00
56123;DHT22;42426;46.104;19.656;2023-04-25T12:27:00;410.50;1843.20
56123;DHT22;42426;46.104;19.656;2023-04-25T12:29:27;410.30;1792.00
56123;DHT22;42426;46.104;19.656;2023-04-25T12:31:54;410.30;1792.00
56123;DHT22;42426;46.104;19.656;2023-04-25T12:34:21;410.30;1843.20
56123;DHT22;42426;46.104;19.656;2023-04-25T12:36:48;410.40;1868.80
56123;DHT22;42426;46.104;19.656;2023-04-25T12:39:21;410.40;1868.80
56123;DHT22;42426;46.104;19.656;2023-04-25T12:41:53;435.20;1817.60
56123;DHT22;42426;46.104;19.656;2023-04-25T12:44:22;435.20;1843.20
56123;DHT22;42426;46.104;19.656;2023-04-25T12:46:48;435.20;1817.60
56123;DHT22;42426;46.104;19.656;2023-04-25T12:49:14;410.50;1817.60
56123;DHT22;42426;46.104;19.656;2023-04-25T12:51:40;410.50;1792.00
56123;DHT22;42426;46.104;19.656;2023-04-25T12:54:07;410.50;1766.40
56123;DHT22;42426;46.104;19.656;2023-04-25T12:56:34;410.50;1740.80
56123;DHT22;42426;46.104;19.656;2023-04-25T12:59:00;410.10;1740.80
56123;DHT22;42426;46.104;19.656;2023-04-25T13:01:26;410.30;1740.80
56123;DHT22;42426;46.104;19.656;2023-04-25T13:03:52;410.20;1792.00
56123;DHT22;42426;46.104;19.656;2023-04-25T13:06:19;410.10;1766.40
56123;DHT22;42426;46.104;19.656;2023-04-25T13:08:45;410.00;1792.00
56123;DHT22;42426;46.104;19.656;2023-04-25T13:11:11;410.10;1766.40
56123;DHT22;42426;46.104;19.656;2023-04-25T13:13:37;410.10;1766.40
56123;DHT22;42426;46.104;19.656;2023-04-25T13:16:04;410.10;1766.40
56123;DHT22;42426;46.104;19.656;2023-04-25T13:18:33;410.30;1715.20
56123;DHT22;42426;46.104;19.656;2023-04-25T13:20:59;410.10;1689.60
56123;DHT22;42426;46.104;19.656;2023-04-25T13:23:27;410.20;1715.20
56123;DHT22;42426;46.104;19.656;2023-04-25T13:25:54;410.30;1740.80
56123;DHT22;42426;46.104;19.656;2023-04-25T13:28:20;410.50;1766.40
56123;DHT22;42426;46.104;19.656;2023-04-25T13:42:58;436.10;1715.20
56123;DHT22;42426;46.104;19.656;2023-04-25T13:45:24;460.90;1638.40
56123;DHT22;42426;46.104;19.656;2023-04-25T13:47:50;436.10;1638.40
56123;DHT22;42426;46.104;19.656;2023-04-25T13:50:16;436.10;1612.80
56123;DHT22;42426;46.104;19.656;2023-04-25T13:52:42;460.80;1664.00
56123;DHT22;42426;46.104;19.656;2023-04-25T13:55:09;460.90;1638.40
56123;DHT22;42426;46.104;19.656;2023-04-25T13:57:35;460.90;1612.80
56123;DHT22;42426;46.104;19.656;2023-04-25T14:00:03;460.90;1587.20
56123;DHT22;42426;46.104;19.656;2023-04-25T14:02:37;460.80;1587.20
56123;DHT22;42426;46.104;19.656;2023-04-25T14:05:06;436.00;1612.80
56123;DHT22;42426;46.104;19.656;2023-04-25T14:07:33;436.00;1638.40
56123;DHT22;42426;46.104;19.656;2023-04-25T14:10:00;436.00;1612.80
56123;DHT22;42426;46.104;19.656;2023-04-25T14:12:26;435.90;1587.20
56123;DHT22;42426;46.104;19.656;2023-04-25T14:14:52;435.90;1587.20
56123;DHT22;42426;46.104;19.656;2023-04-25T14:17:21;436.10;1612.80
56123;DHT22;42426;46.104;19.656;2023-04-25T14:19:46;460.90;1638.40
56123;DHT22;42426;46.104;19.656;2023-04-25T14:22:14;461.00;1561.60
56123;DHT22;42426;46.104;19.656;2023-04-25T14:24:41;461.20;1561.60
56123;DHT22;42426;46.104;19.656;2023-04-25T14:27:07;461.40;1536.00
56123;DHT22;42426;46.104;19.656;2023-04-25T14:29:32;461.30;1484.80
56123;DHT22;42426;46.104;19.656;2023-04-25T14:31:58;461.30;1459.20
56123;DHT22;42426;46.104;19.656;2023-04-25T14:34:25;461.20;1433.60
56123;DHT22;42426;46.104;19.656;2023-04-25T14:36:51;461.20;1459.20
56123;DHT22;42426;46.104;19.656;2023-04-25T14:39:18;461.10;1459.20
56123;DHT22;42426;46.104;19.656;2023-04-25T14:41:44;461.20;1433.60
56123;DHT22;42426;46.104;19.656;2023-04-25T14:44:10;461.10;1433.60
56123;DHT22;42426;46.104;19.656;2023-04-25T14:46:36;461.20;1459.20
56123;DHT22;42426;46.104;19.656;2023-04-25T14:49:02;461.30;1459.20
56123;DHT22;42426;46.104;19.656;2023-04-25T14:51:28;461.50;1484.80
56123;DHT22;42426;46.104;19.656;2023-04-25T14:53:55;461.70;1408.00
56123;DHT22;42426;46.104;19.656;2023-04-25T14:56:21;486.50;1408.00
56123;DHT22;42426;46.104;19.656;2023-04-25T14:58:47;486.50;1408.00
56123;DHT22;42426;46.104;19.656;2023-04-25T15:01:13;486.50;1408.00
56123;DHT22;42426;46.104;19.656;2023-04-25T15:03:42;486.40;1331.20
56123;DHT22;42426;46.104;19.656;2023-04-25T15:06:08;461.50;1356.80
56123;DHT22;42426;46.104;19.656;2023-04-25T15:08:34;461.40;1382.40
56123;DHT22;42426;46.104;19.656;2023-04-25T15:11:01;435.90;1356.80
56123;DHT22;42426;46.104;19.656;2023-04-25T15:13:28;461.40;1382.40
56123;DHT22;42426;46.104;19.656;2023-04-25T15:15:54;461.60;1382.40
56123;DHT22;42426;46.104;19.656;2023-04-25T15:18:21;486.40;1408.00
56123;DHT22;42426;46.104;19.656;2023-04-25T15:20:48;486.50;1305.60
56123;DHT22;42426;46.104;19.656;2023-04-25T15:23:14;486.70;1280.00
56123;DHT22;42426;46.104;19.656;2023-04-25T15:25:40;486.90;1280.00
56123;DHT22;42426;46.104;19.656;2023-04-25T15:28:05;487.10;1280.00
56123;DHT22;42426;46.104;19.656;2023-04-25T15:30:31;512.10;1280.00
56123;DHT22;42426;46.104;19.656;2023-04-25T15:32:57;487.00;1254.40
56123;DHT22;42426;46.104;19.656;2023-04-25T15:35:22;512.10;1305.60
56123;DHT22;42426;46.104;19.656;2023-04-25T15:37:48;512.50;1203.20
56123;DHT22;42426;46.104;19.656;2023-04-25T15:40:16;512.80;1203.20
56123;DHT22;42426;46.104;19.656;2023-04-25T15:42:47;537.70;1177.60
56123;DHT22;42426;46.104;19.656;2023-04-25T15:45:15;537.90;1203.20
56123;DHT22;42426;46.104;19.656;2023-04-25T15:47:43;537.90;1100.80
56123;DHT22;42426;46.104;19.656;2023-04-25T15:50:09;538.10;1126.40
56123;DHT22;42426;46.104;19.656;2023-04-25T15:52:36;538.00;1075.20
56123;DHT22;42426;46.104;19.656;2023-04-25T15:55:02;537.70;1100.80
56123;DHT22;42426;46.104;19.656;2023-04-25T15:57:33;537.70;1100.80
56123;DHT22;42426;46.104;19.656;2023-04-25T16:00:00;537.80;1100.80
56123;DHT22;42426;46.104;19.656;2023-04-25T16:02:25;537.90;1075.20
56123;DHT22;42426;46.104;19.656;2023-04-25T16:04:51;538.10;1075.20
56123;DHT22;42426;46.104;19.656;2023-04-25T16:07:17;538.20;1075.20
56123;DHT22;42426;46.104;19.656;2023-04-25T16:09:43;538.40;1049.60
56123;DHT22;42426;46.104;19.656;2023-04-25T16:12:10;563.40;1100.80
56123;DHT22;42426;46.104;19.656;2023-04-25T16:14:36;563.50;1075.20
56123;DHT22;42426;46.104;19.656;2023-04-25T16:17:02;563.90;1100.80
56123;DHT22;42426;46.104;19.656;2023-04-25T16:19:28;588.80;1100.80
56123;DHT22;42426;46.104;19.656;2023-04-25T16:21:53;589.10;998.40
56123;DHT22;42426;46.104;19.656;2023-04-25T16:24:20;589.40;1024.00
56123;DHT22;42426;46.104;19.656;2023-04-25T16:26:46;589.50;998.40
56123;DHT22;42426;46.104;19.656;2023-04-25T16:29:12;589.70;972.80
56123;DHT22;42426;46.104;19.656;2023-04-25T16:31:39;589.60;947.20
56123;DHT22;42426;46.104;19.656;2023-04-25T16:34:06;614.50;998.40
56123;DHT22;42426;46.104;19.656;2023-04-25T16:36:32;614.40;972.80
56123;DHT22;42426;46.104;19.656;2023-04-25T16:38:58;614.40;972.80
56123;DHT22;42426;46.104;19.656;2023-04-25T16:41:26;614.50;972.80
56123;DHT22;42426;46.104;19.656;2023-04-25T16:43:52;614.50;947.20
56123;DHT22;42426;46.104;19.656;2023-04-25T16:46:18;614.50;921.60
56123;DHT22;42426;46.104;19.656;2023-04-25T16:48:47;614.50;947.20
56123;DHT22;42426;46.104;19.656;2023-04-25T16:51:13;614.40;921.60
56123;DHT22;42426;46.104;19.656;2023-04-25T16:53:40;589.60;972.80
56123;DHT22;42426;46.104;19.656;2023-04-25T16:56:06;589.60;972.80
56123;DHT22;42426;46.104;19.656;2023-04-25T16:58:33;589.40;1024.00
56123;DHT22;42426;46.104;19.656;2023-04-25T17:00:58;589.30;1024.00
56123;DHT22;42426;46.104;19.656;2023-04-25T17:03:24;589.10;1024.00
56123;DHT22;42426;46.104;19.656;2023-04-25T17:05:52;588.90;998.40
56123;DHT22;42426;46.104;19.656;2023-04-25T17:08:21;563.90;1024.00
56123;DHT22;42426;46.104;19.656;2023-04-25T17:10:47;563.30;1049.60
56123;DHT22;42426;46.104;19.656;2023-04-25T17:13:13;538.10;1049.60
56123;DHT22;42426;46.104;19.656;2023-04-25T17:15:39;512.90;1126.40
56123;DHT22;42426;46.104;19.656;2023-04-25T17:18:05;512.30;1152.00
56123;DHT22;42426;46.104;19.656;2023-04-25T17:20:31;487.30;1228.80
56123;DHT22;42426;46.104;19.656;2023-04-25T17:22:56;486.70;1254.40
56123;DHT22;42426;46.104;19.656;2023-04-25T17:25:22;486.40;1203.20
56123;DHT22;42426;46.104;19.656;2023-04-25T17:27:48;461.50;1280.00
56123;DHT22;42426;46.104;19.656;2023-04-25T17:30:14;461.20;1305.60
56123;DHT22;42426;46.104;19.656;2023-04-25T17:32:40;461.10;1408.00
56123;DHT22;42426;46.104;19.656;2023-04-25T17:35:06;460.80;1331.20
56123;DHT22;42426;46.104;19.656;2023-04-25T17:37:32;436.00;1408.00
56123;DHT22;42426;46.104;19.656;2023-04-25T17:39:58;435.90;1433.60
56123;DHT22;42426;46.104;19.656;2023-04-25T17:44:50;435.60;1331.20
56123;DHT22;42426;46.104;19.656;2023-04-25T17:47:16;435.40;1382.40
56123;DHT22;42426;46.104;19.656;2023-04-25T17:49:42;435.30;1433.60
56123;DHT22;42426;46.104;19.656;2023-04-25T17:52:08;435.20;1459.20
56123;DHT22;42426;46.104;19.656;2023-04-25T17:54:33;410.50;1536.00
56123;DHT22;42426;46.104;19.656;2023-04-25T17:56:59;410.40;1561.60
56123;DHT22;42426;46.104;19.656;2023-04-25T17:59:25;410.30;1561.60
56123;DHT22;42426;46.104;19.656;2023-04-25T18:01:52;410.20;1612.80
56123;DHT22;42426;46.104;19.656;2023-04-25T18:04:18;410.00;1612.80
56123;DHT22;42426;46.104;19.656;2023-04-25T18:06:44;410.00;1561.60
56123;DHT22;42426;46.104;19.656;2023-04-25T18:09:09;410.00;1612.80
56123;DHT22;42426;46.104;19.656;2023-04-25T18:11:45;410.00;1612.80
56123;DHT22;42426;46.104;19.656;2023-04-25T18:14:12;409.80;1587.20
56123;DHT22;42426;46.104;19.656;2023-04-25T18:16:46;409.70;1638.40
56123;DHT22;42426;46.104;19.656;2023-04-25T18:19:12;409.60;1664.00
56123;DHT22;42426;46.104;19.656;2023-04-25T18:21:43;409.60;1689.60
56123;DHT22;42426;46.104;19.656;2023-04-25T18:24:10;409.60;1664.00
56123;DHT22;42426;46.104;19.656;2023-04-25T18:26:42;384.80;1587.20
56123;DHT22;42426;46.104;19.656;2023-04-25T18:29:09;384.80;1638.40
56123;DHT22;42426;46.104;19.656;2023-04-25T18:31:35;384.80;1638.40
56123;DHT22;42426;46.104;19.656;2023-04-25T18:34:01;384.70;1612.80
56123;DHT22;42426;46.104;19.656;2023-04-25T18:36:27;384.60;1638.40
56123;DHT22;42426;46.104;19.656;2023-04-25T18:38:56;384.50;1638.40
56123;DHT22;42426;46.104;19.656;2023-04-25T18:41:25;384.50;1638.40
56123;DHT22;42426;46.104;19.656;2023-04-25T18:43:52;384.40;1689.60
56123;DHT22;42426;46.104;19.656;2023-04-25T18:46:19;384.40;1689.60
56123;DHT22;42426;46.104;19.656;2023-04-25T18:48:50;384.40;1638.40
56123;DHT22;42426;46.104;19.656;2023-04-25T18:51:18;384.20;1715.20
56123;DHT22;42426;46.104;19.656;2023-04-25T18:53:44;384.10;1715.20
56123;DHT22;42426;46.104;19.656;2023-04-25T18:56:10;384.20;1715.20
56123;DHT22;42426;46.104;19.656;2023-04-25T18:58:37;384.20;1715.20
56123;DHT22;42426;46.104;19.656;2023-04-25T19:01:02;384.10;1740.80
56123;DHT22;42426;46.104;19.656;2023-04-25T19:03:29;384.10;1715.20
56123;DHT22;42426;46.104;19.656;2023-04-25T19:05:55;384.00;1715.20
56123;DHT22;42426;46.104;19.656;2023-04-25T19:08:21;384.00;1766.40
56123;DHT22;42426;46.104;19.656;2023-04-25T19:10:48;384.00;1740.80
56123;DHT22;42426;46.104;19.656;2023-04-25T19:13:14;359.30;1766.40
56123;DHT22;42426;46.104;19.656;2023-04-25T19:15:40;359.30;1766.40
56123;DHT22;42426;46.104;19.656;2023-04-25T19:18:06;359.20;1715.20
56123;DHT22;42426;46.104;19.656;2023-04-25T19:20:32;359.20;1766.40
56123;DHT22;42426;46.104;19.656;2023-04-25T19:22:58;359.20;1766.40
56123;DHT22;42426;46.104;19.656;2023-04-25T19:40:03;359.10;1817.60
56123;DHT22;42426;46.104;19.656;2023-04-25T19:42:31;359.00;1843.20
56123;DHT22;42426;46.104;19.656;2023-04-25T19:44:57;358.70;1843.20
56123;DHT22;42426;46.104;19.656;2023-04-25T19:47:24;358.70;1868.80
56123;DHT22;42426;46.104;19.656;2023-04-25T19:49:52;358.60;1843.20
56123;DHT22;42426;46.104;19.656;2023-04-25T19:52:18;358.60;1868.80
56123;DHT22;42426;46.104;19.656;2023-04-25T19:54:44;358.60;1894.40
56123;DHT22;42426;46.104;19.656;2023-04-25T19:57:11;358.60;1894.40
56123;DHT22;42426;46.104;19.656;2023-04-25T19:59:38;358.70;1894.40
56123;DHT22;42426;46.104;19.656;2023-04-25T20:02:05;358.60;1894.40
56123;DHT22;42426;46.104;19.656;2023-04-25T20:04:31;358.60;1894.40
56123;DHT22;42426;46.104;19.656;2023-04-25T22:40:58;307.20;2124.80
